Time;durP1;ratioP1;P1;durP2;ratioP2;P2;SDS_P1;SDS_P2;PMS_P1;PMS_P2;Temp;Humidity;BMP_temperature;BMP_pressure;BME280_temperature;BME280_humidity;BME280_pressure;Samples;Min_cycle;Max_cycle;Signal;HPM_P1;HPM_P2
2023/02/06 00:00:32;;;;;;;;;;;;;;;;;;5066838;28;19909;-78
2023/02/06 00:02:58;;;;;;;;;;;;;;;;;;5082932;28;19994;-80
2023/02/06 00:05:24;;;;;;;;;;;;;;;;;;5082683;28;19908;-77
2023/02/06 00:07:50;;;;;;;;;;;;;;;;;;5065931;28;19919;-77
2023/02/06 00:10:16;;;;;;;;;;;;;;;;;;5083555;28;19915;-78
2023/02/06 00:12:42;;;;;;;;;;;;;;;;;;5065459;28;19908;-79
2023/02/06 00:15:08;;;;;;;;;;;;;;;;;;5065539;28;19965;-79
2023/02/06 00:17:33;;;;;;;;;;;;;;;;;;5065189;28;19912;-77
2023/02/06 00:19:59;;;;;;;;;;;;;;;;;;5083477;28;19908;-79
2023/02/06 00:22:25;;;;;;;;;;;;;;;;;;5066537;28;19924;-77
2023/02/06 00:24:51;;;;;;;;;;;;;;;;;;5066228;28;19916;-79
2023/02/06 00:27:17;;;;;;;;;;;;;;;;;;5065964;28;20423;-78
2023/02/06 00:29:43;;;;;;;;;;;;;;;;;;5083735;28;20550;-78
2023/02/06 00:32:09;;;;;;;;;;;;;;;;;;5064886;28;19912;-78
2023/02/06 00:34:35;;;;;;;;;;;;;;;;;;5083064;28;19945;-76
2023/02/06 00:37:01;;;;;;;;;;;;;;;;;;5083489;28;20369;-77
2023/02/06 00:39:27;;;;;;;;;;;;;;;;;;5065708;28;19923;-78
2023/02/06 00:41:54;;;;;;;;;;;;;;;;;;5065336;28;19909;-77
2023/02/06 00:44:20;;;;;;;;;;;;;;;;;;5065845;28;19955;-78
2023/02/06 00:46:46;;;;;;;;;;;;;;;;;;5082602;28;19909;-76
2023/02/06 00:49:12;;;;;;;;;;;;;;;;;;5065079;28;19908;-79
2023/02/06 00:51:38;;;;;;;;;;;;;;;;;;5065439;28;19913;-77
2023/02/06 00:54:04;;;;;;;;;;;;;;;;;;5066106;28;19917;-77
2023/02/06 00:56:30;;;;;;;;;;;;;;;;;;5082698;28;20305;-77
2023/02/06 00:58:56;;;;;;;;;;;;;;;;;;5063626;28;19908;-77
2023/02/06 01:01:22;;;;;;;;;;;;;;;;;;5081399;28;19916;-79
2023/02/06 01:03:47;;;;;;;;;;;;;;;;;;5064845;28;19908;-78
2023/02/06 01:06:13;;;;;;;;;;;;;;;;;;5064624;28;19908;-78
2023/02/06 01:08:39;;;;;;;;;;;;;;;;;;5063719;28;19912;-76
2023/02/06 01:11:05;;;;;;;;;;;;;;;;;;5083350;28;19908;-77
2023/02/06 01:13:31;;;;;;;;;;;;;;;;;;5082603;28;19909;-77
2023/02/06 01:15:57;;;;;;;;;;;;;;;;;;5083415;28;19913;-78
2023/02/06 01:18:23;;;;;;;;;;;;;;;;;;5064737;28;19916;-78
2023/02/06 01:20:49;;;;;;;;;;;;;;;;;;5083175;28;19934;-76
2023/02/06 01:23:15;;;;;;;;;;;;;;;;;;5064835;28;19943;-78
2023/02/06 01:25:41;;;;;;;;;;;;;;;;;;5064673;28;19948;-79
2023/02/06 01:28:06;;;;;;;;;;;;;;;;;;5064979;28;19904;-76
2023/02/06 01:30:32;;;;;;;;;;;;;;;;;;5082859;28;19922;-80
2023/02/06 01:32:58;;;;;;;;;;;;;;;;;;5065681;28;20295;-79
2023/02/06 01:35:25;;;;;;;;;;;;;;;;;;5065900;28;20019;-79
2023/02/06 01:37:51;;;;;;;;;;;;;;;;;;5082945;28;19908;-78
2023/02/06 01:40:17;;;;;;;;;;;;;;;;;;5066349;28;19916;-77
2023/02/06 01:42:43;;;;;;;;;;;;;;;;;;5086941;28;19908;-77
2023/02/06 01:45:09;;;;;;;;;;;;;;;;;;5086604;28;19918;-80
2023/02/06 01:47:35;;;;;;;;;;;;;;;;;;5068365;28;19947;-79
2023/02/06 01:50:00;;;;;;;;;;;;;;;;;;5068993;28;19975;-78
2023/02/06 01:52:30;;;;;;;;;;;;;;;;;;5068467;28;20456;-77
2023/02/06 01:54:55;;;;;;;;;;;;;;;;;;5068947;28;19912;-79
2023/02/06 01:57:21;;;;;;;;;;;;;;;;;;5067448;28;19909;-79
2023/02/06 01:59:47;;;;;;;;;;;;;;;;;;5086245;28;19908;-79
2023/02/06 02:02:13;;;;;;;;;;;;;;;;;;5067411;28;19954;-77
2023/02/06 02:04:39;;;;;;;;;;;;;;;;;;5068162;28;20385;-78
2023/02/06 02:07:05;;;;;;;;;;;;;;;;;;5086002;28;19942;-77
2023/02/06 02:09:31;;;;;;;;;;;;;;;;;;5085629;28;19909;-77
2023/02/06 02:11:57;;;;;;;;;;;;;;;;;;5067946;28;20277;-79
2023/02/06 02:14:23;;;;;;;;;;;;;;;;;;5067664;28;19915;-76
2023/02/06 02:16:48;;;;;;;;;;;;;;;;;;5067942;28;19917;-75
2023/02/06 02:19:14;;;;;;;;;;;;;;;;;;5085481;28;19909;-80
2023/02/06 02:21:40;;;;;;;;;;;;;;;;;;5085748;28;19913;-78
2023/02/06 02:24:06;;;;;;;;;;;;;;;;;;5068634;28;19909;-79
2023/02/06 02:26:32;;;;;;;;;;;;;;;;;;5086382;28;20338;-80
2023/02/06 02:28:58;;;;;;;;;;;;;;;;;;5068872;28;19908;-80
2023/02/06 02:31:24;;;;;;;;;;;;;;;;;;5086800;28;19962;-77
2023/02/06 02:33:50;;;;;;;;;;;;;;;;;;5068422;28;19951;-78
2023/02/06 02:36:15;;;;;;;;;;;;;;;;;;5067745;28;19978;-77
2023/02/06 02:38:41;;;;;;;;;;;;;;;;;;5067486;28;19943;-77
2023/02/06 02:41:07;;;;;;;;;;;;;;;;;;5068142;28;20367;-79
2023/02/06 02:43:33;;;;;;;;;;;;;;;;;;5085656;28;19976;-79
2023/02/06 02:45:59;;;;;;;;;;;;;;;;;;5085060;28;19918;-78
2023/02/06 02:48:25;;;;;;;;;;;;;;;;;;5084951;28;19909;-79
2023/02/06 02:50:51;;;;;;;;;;;;;;;;;;5068327;28;20376;-78
2023/02/06 02:53:17;;;;;;;;;;;;;;;;;;5067164;28;19913;-79
2023/02/06 02:55:43;;;;;;;;;;;;;;;;;;5085249;28;19924;-80
2023/02/06 02:58:09;;;;;;;;;;;;;;;;;;5067805;28;19919;-77
2023/02/06 03:00:34;;;;;;;;;;;;;;;;;;5085195;28;19905;-78
2023/02/06 03:03:00;;;;;;;;;;;;;;;;;;5084342;28;20377;-78
2023/02/06 03:05:26;;;;;;;;;;;;;;;;;;5066435;28;19911;-77
2023/02/06 03:07:52;;;;;;;;;;;;;;;;;;5066776;28;19913;-78
2023/02/06 03:10:18;;;;;;;;;;;;;;;;;;5067388;28;19904;-78
2023/02/06 03:12:44;;;;;;;;;;;;;;;;;;5067034;28;19912;-78
2023/02/06 03:15:10;;;;;;;;;;;;;;;;;;5085694;28;19913;-79
2023/02/06 03:17:36;;;;;;;;;;;;;;;;;;5067111;28;20272;-78
2023/02/06 03:20:02;;;;;;;;;;;;;;;;;;5085424;28;19909;-77
2023/02/06 03:22:28;;;;;;;;;;;;;;;;;;5066989;28;20335;-78
2023/02/06 03:24:54;;;;;;;;;;;;;;;;;;5067393;28;19912;-79
2023/02/06 03:27:20;;;;;;;;;;;;;;;;;;5067089;28;19957;-79
2023/02/06 03:29:45;;;;;;;;;;;;;;;;;;5067322;28;19909;-79
2023/02/06 03:32:11;;;;;;;;;;;;;;;;;;5067633;28;19909;-78
2023/02/06 03:34:37;;;;;;;;;;;;;;;;;;5084670;28;19919;-78
2023/02/06 03:37:03;;;;;;;;;;;;;;;;;;5084570;28;20392;-77
2023/02/06 08:17:16;;;;;;;;;;;;;;;;;;5798537;22;19933;-79
2023/02/06 08:19:42;;;;;;;;;;;;;;;;;;4976632;28;20357;-77
2023/02/06 08:22:07;;;;;;;;;;;;;;;;;;4990753;28;19910;-77
2023/02/06 08:24:33;;;;;;;;;;;;;;;;;;4976112;28;19956;-78
2023/02/06 08:26:59;;;;;;;;;;;;;;;;;;4993242;28;19906;-77
2023/02/06 08:29:25;;;;;;;;;;;;;;;;;;4975322;28;20013;-79
2023/02/06 08:31:51;;;;;;;;;;;;;;;;;;4993210;28;19980;-78
2023/02/06 08:34:17;;;;;;;;;;;;;;;;;;4974271;28;19965;-77
2023/02/06 08:36:43;;;;;;;;;;;;;;;;;;4975039;28;19918;-78
2023/02/06 08:39:09;;;;;;;;;;;;;;;;;;4992680;28;20008;-78
2023/02/06 08:41:38;;;;;;;;;;;;;;;;;;4975883;28;19944;-79
2023/02/06 08:44:07;;;;;;;;;;;;;;;;;;4999895;28;19945;-81
2023/02/06 08:46:33;;;;;;;;;;;;;;;;;;4975603;28;19910;-79
2023/02/06 08:48:59;;;;;;;;;;;;;;;;;;4986389;28;19932;-79
2023/02/06 08:51:28;;;;;;;;;;;;;;;;;;4996397;28;20000;-78
2023/02/06 08:53:54;;;;;;;;;;;;;;;;;;4979786;28;19910;-78
2023/02/06 08:56:20;;;;;;;;;;;;;;;;;;4996835;28;19913;-80
2023/02/06 08:58:46;;;;;;;;;;;;;;;;;;5042836;23;19929;-81
2023/02/06 09:01:17;;;;;;;;;;;;;;;;;;5076025;28;19908;-78
2023/02/06 09:03:43;;;;;;;;;;;;;;;;;;5058268;28;20001;-79
2023/02/06 09:06:09;;;;;;;;;;;;;;;;;;5058027;28;19908;-79
2023/02/06 09:08:35;;;;;;;;;;;;;;;;;;5058277;28;20446;-80
2023/02/06 09:11:02;;;;;;;;;;;;;;;;;;5058126;28;19913;-78
2023/02/06 09:13:27;;;;;;;;;;;;;;;;;;5058728;28;20007;-81
2023/02/06 09:15:53;;;;;;;;;;;;;;;;;;5075861;28;20003;-78
2023/02/06 09:18:19;;;;;;;;;;;;;;;;;;5075467;28;20406;-79
2023/02/06 09:20:48;;;;;;;;;;;;;;;;;;5057786;28;19908;-78
2023/02/06 09:23:14;;;;;;;;;;;;;;;;;;5058123;28;20563;-79
2023/02/06 09:25:40;;;;;;;;;;;;;;;;;;5058747;28;19962;-80
2023/02/06 09:28:06;;;;;;;;;;;;;;;;;;5060702;28;19913;-81
2023/02/06 09:30:32;;;;;;;;;;;;;;;;;;5066769;28;20422;-80
2023/02/06 09:32:58;;;;;;;;;;;;;;;;;;5064949;28;19958;-81
2023/02/06 09:35:29;;;;;;;;;;;;;;;;;;5072313;28;19920;-80
2023/02/06 09:37:55;;;;;;;;;;;;;;;;;;5071893;28;19923;-80
2023/02/06 09:40:22;;;;;;;;;;;;;;;;;;5051091;23;20016;-77
2023/02/06 09:42:48;;;;;;;;;;;;;;;;;;5036939;28;20058;-77
2023/02/06 09:45:14;;;;;;;;;;;;;;;;;;5018569;28;19921;-77
2023/02/06 09:47:40;;;;;;;;;;;;;;;;;;5019329;28;19915;-77
2023/02/06 09:50:06;;;;;;;;;;;;;;;;;;5038555;28;19909;-77
2023/02/06 09:52:32;;;;;;;;;;;;;;;;;;5037733;28;19909;-77
2023/02/06 09:54:59;;;;;;;;;;;;;;;;;;5039019;28;20294;-78
2023/02/06 09:57:25;;;;;;;;;;;;;;;;;;5046950;28;19917;-78
2023/02/06 09:59:51;;;;;;;;;;;;;;;;;;5018633;28;19950;-78
2023/02/06 10:02:17;;;;;;;;;;;;;;;;;;5029770;28;19919;-77
2023/02/06 10:04:43;;;;;;;;;;;;;;;;;;5049529;28;19913;-78
2023/02/06 10:07:08;;;;;;;;;;;;;;;;;;5013501;28;19979;-78
2023/02/06 10:09:34;;;;;;;;;;;;;;;;;;5038840;28;19913;-78
2023/02/06 10:12:00;;;;;;;;;;;;;;;;;;5045347;28;19920;-78
2023/02/06 10:14:26;;;;;;;;;;;;;;;;;;5052174;28;19920;-78
2023/02/06 10:16:53;;;;;;;;;;;;;;;;;;5027871;28;20126;-78
2023/02/06 10:19:19;;;;;;;;;;;;;;;;;;5044490;28;20408;-78
2023/02/06 10:21:46;;;;;;;;;;;;;;;;;;5031524;28;19912;-77
2023/02/06 10:24:11;;;;;;;;;;;;;;;;;;5058376;28;19995;-76
2023/02/06 10:26:37;;;;;;;;;;;;;;;;;;5058557;28;20391;-77
2023/02/06 10:29:03;;;;;;;;;;;;;;;;;;5018175;28;19910;-78
2023/02/06 10:31:29;;;;;;;;;;;;;;;;;;5037819;28;19911;-78
2023/02/06 10:33:55;;;;;;;;;;;;;;;;;;5020822;28;19905;-77
2023/02/06 10:36:21;;;;;;;;;;;;;;;;;;5039047;28;19946;-77
2023/02/06 10:38:47;;;;;;;;;;;;;;;;;;5038602;28;19909;-77
2023/02/06 10:41:13;;;;;;;;;;;;;;;;;;5038548;28;19920;-77
2023/02/06 10:43:39;;;;;;;;;;;;;;;;;;5021698;28;19909;-78
2023/02/06 10:46:05;;;;;;;;;;;;;;;;;;5020118;28;19917;-77
2023/02/06 10:48:31;;;;;;;;;;;;;;;;;;5018721;28;20298;-77
2023/02/06 10:50:57;;;;;;;;;;;;;;;;;;5019363;28;19910;-77
2023/02/06 10:53:23;;;;;;;;;;;;;;;;;;5037817;28;20332;-78
2023/02/06 10:55:49;;;;;;;;;;;;;;;;;;5037236;28;19913;-76
2023/02/06 10:58:15;;;;;;;;;;;;;;;;;;5037452;28;19920;-78
2023/02/06 11:00:41;;;;;;;;;;;;;;;;;;5038099;28;19979;-78
2023/02/06 11:03:07;;;;;;;;;;;;;;;;;;5037572;28;19909;-77
2023/02/06 11:05:33;;;;;;;;;;;;;;;;;;5037350;28;19913;-77
2023/02/06 11:07:58;;;;;;;;;;;;;;;;;;5020125;28;19909;-79
2023/02/06 11:10:24;;;;;;;;;;;;;;;;;;5037510;28;19909;-77
2023/02/06 11:12:50;;;;;;;;;;;;;;;;;;5018954;28;19920;-77
2023/02/06 11:15:16;;;;;;;;;;;;;;;;;;5017331;28;19919;-77
2023/02/06 11:17:43;;;;;;;;;;;;;;;;;;5036200;28;19913;-78
2023/02/06 11:20:09;;;;;;;;;;;;;;;;;;5038987;28;19909;-78
2023/02/06 11:22:35;;;;;;;;;;;;;;;;;;5020441;28;19909;-78
2023/02/06 11:25:01;;;;;;;;;;;;;;;;;;5037246;28;19920;-78
2023/02/06 11:27:27;;;;;;;;;;;;;;;;;;5037746;28;19909;-77
2023/02/06 11:29:53;;;;;;;;;;;;;;;;;;5036544;28;19920;-78
2023/02/06 11:32:19;;;;;;;;;;;;;;;;;;5037819;28;19910;-77
2023/02/06 11:34:45;;;;;;;;;;;;;;;;;;5037085;28;19959;-77
2023/02/06 11:37:11;;;;;;;;;;;;;;;;;;5037566;28;19935;-78
2023/02/06 11:39:36;;;;;;;;;;;;;;;;;;5036578;28;19924;-78
2023/02/06 11:42:02;;;;;;;;;;;;;;;;;;5037443;28;19913;-78
2023/02/06 11:44:28;;;;;;;;;;;;;;;;;;5037301;28;20391;-78
2023/02/06 11:46:55;;;;;;;;;;;;;;;;;;5037850;28;19916;-78
2023/02/06 11:49:21;;;;;;;;;;;;;;;;;;5019180;28;20000;-77
2023/02/06 11:51:47;;;;;;;;;;;;;;;;;;5037502;28;20410;-77
2023/02/06 11:54:13;;;;;;;;;;;;;;;;;;5020405;28;20378;-77
2023/02/06 11:56:39;;;;;;;;;;;;;;;;;;5019495;28;19913;-77
2023/02/06 11:59:05;;;;;;;;;;;;;;;;;;5036416;28;20320;-78
2023/02/06 12:01:31;;;;;;;;;;;;;;;;;;5036983;28;20003;-77
2023/02/06 12:03:57;;;;;;;;;;;;;;;;;;5037038;28;19963;-78
2023/02/06 12:06:23;;;;;;;;;;;;;;;;;;5036771;28;20356;-77
2023/02/06 12:08:49;;;;;;;;;;;;;;;;;;5036794;28;20327;-79
2023/02/06 12:11:15;;;;;;;;;;;;;;;;;;5037322;28;19943;-78
2023/02/06 12:13:40;;;;;;;;;;;;;;;;;;5019327;28;19909;-78
2023/02/06 12:16:06;;;;;;;;;;;;;;;;;;5037277;28;19913;-78
2023/02/06 12:18:32;;;;;;;;;;;;;;;;;;5018969;28;20285;-77
2023/02/06 12:20:58;;;;;;;;;;;;;;;;;;5019133;28;19963;-78
2023/02/06 12:23:24;;;;;;;;;;;;;;;;;;5036800;28;19909;-78
2023/02/06 12:25:50;;;;;;;;;;;;;;;;;;5018820;28;19909;-77
2023/02/06 12:28:16;;;;;;;;;;;;;;;;;;5018985;28;19948;-77
2023/02/06 12:30:42;;;;;;;;;;;;;;;;;;5037302;28;20401;-78
2023/02/06 12:33:08;;;;;;;;;;;;;;;;;;5018950;28;19919;-78
2023/02/06 12:35:34;;;;;;;;;;;;;;;;;;5036422;28;19912;-78
2023/02/06 12:38:00;;;;;;;;;;;;;;;;;;5018973;28;19917;-77
2023/02/06 12:40:26;;;;;;;;;;;;;;;;;;5036680;28;19917;-78
2023/02/06 12:42:51;;;;;;;;;;;;;;;;;;5019093;28;19915;-78
2023/02/06 12:45:17;;;;;;;;;;;;;;;;;;5018153;28;20464;-77
2023/02/06 12:47:43;;;;;;;;;;;;;;;;;;5036228;28;19917;-78
2023/02/06 12:50:09;;;;;;;;;;;;;;;;;;5019292;28;19941;-78
2023/02/06 12:52:35;;;;;;;;;;;;;;;;;;5036910;28;20046;-78
2023/02/06 12:55:01;;;;;;;;;;;;;;;;;;5035940;28;19917;-77
2023/02/06 12:57:27;;;;;;;;;;;;;;;;;;5035737;28;19932;-78
2023/02/06 12:59:53;;;;;;;;;;;;;;;;;;5035897;28;19909;-78
2023/02/06 13:02:19;;;;;;;;;;;;;;;;;;5018582;28;19920;-78
2023/02/06 13:04:45;;;;;;;;;;;;;;;;;;5018266;28;19909;-78
2023/02/06 13:07:11;;;;;;;;;;;;;;;;;;5018052;28;19909;-77
2023/02/06 13:09:37;;;;;;;;;;;;;;;;;;5035347;28;20346;-77
2023/02/06 13:12:03;;;;;;;;;;;;;;;;;;5035995;28;19960;-78
2023/02/06 13:14:29;;;;;;;;;;;;;;;;;;5017837;28;20062;-77
2023/02/06 13:16:55;;;;;;;;;;;;;;;;;;5017814;28;19913;-78
2023/02/06 13:19:21;;;;;;;;;;;;;;;;;;5035828;28;20023;-78
2023/02/06 13:21:47;;;;;;;;;;;;;;;;;;5018298;28;19976;-78
2023/02/06 13:24:12;;;;;;;;;;;;;;;;;;5018491;28;19913;-79
2023/02/06 13:26:38;;;;;;;;;;;;;;;;;;5018025;28;19909;-78
2023/02/06 13:29:04;;;;;;;;;;;;;;;;;;5017799;28;19920;-77
2023/02/06 13:31:30;;;;;;;;;;;;;;;;;;5017852;28;20366;-77
2023/02/06 13:33:56;;;;;;;;;;;;;;;;;;5016405;28;19917;-77
2023/02/06 13:36:22;;;;;;;;;;;;;;;;;;5016855;28;19968;-75
2023/02/06 13:38:48;;;;;;;;;;;;;;;;;;5037296;28;19909;-76
2023/02/06 13:41:14;;;;;;;;;;;;;;;;;;5021273;28;20345;-77
2023/02/06 13:43:40;;;;;;;;;;;;;;;;;;5038209;28;19905;-76
2023/02/06 13:46:06;;;;;;;;;;;;;;;;;;5036973;28;19909;-78
2023/02/06 13:48:32;;;;;;;;;;;;;;;;;;5020293;28;20366;-76
2023/02/06 13:50:58;;;;;;;;;;;;;;;;;;5037855;28;19916;-76
2023/02/06 13:53:24;;;;;;;;;;;;;;;;;;5038096;28;20274;-76
2023/02/06 13:55:49;;;;;;;;;;;;;;;;;;5036841;28;19913;-76
2023/02/06 13:58:15;;;;;;;;;;;;;;;;;;5019896;28;20012;-77
2023/02/06 14:00:41;;;;;;;;;;;;;;;;;;5019773;28;19909;-76
2023/02/06 14:03:07;;;;;;;;;;;;;;;;;;5020096;28;19916;-77
2023/02/06 14:05:33;;;;;;;;;;;;;;;;;;5004612;28;19906;-78
2023/02/06 14:07:59;;;;;;;;;;;;;;;;;;5017408;28;20397;-76
2023/02/06 14:10:25;;;;;;;;;;;;;;;;;;5017722;28;19916;-76
2023/02/06 14:12:51;;;;;;;;;;;;;;;;;;5000665;28;19909;-76
2023/02/06 14:15:17;;;;;;;;;;;;;;;;;;5018033;28;19920;-76
2023/02/06 14:17:45;;;;;;;;;;;;;;;;;;5001248;28;19936;-77
2023/02/06 14:20:11;;;;;;;;;;;;;;;;;;5018493;28;19913;-75
2023/02/06 14:22:37;;;;;;;;;;;;;;;;;;5018260;28;19916;-75
2023/02/06 14:25:05;;;;;;;;;;;;;;;;;;5019218;28;19917;-77
2023/02/06 14:27:31;;;;;;;;;;;;;;;;;;5018436;28;19916;-77
2023/02/06 14:29:57;;;;;;;;;;;;;;;;;;5018266;28;19917;-76
2023/02/06 14:32:23;;;;;;;;;;;;;;;;;;5018818;28;19920;-77
2023/02/06 14:34:49;;;;;;;;;;;;;;;;;;5000138;28;20298;-77
2023/02/06 14:37:15;;;;;;;;;;;;;;;;;;5000298;28;19956;-76
2023/02/06 14:39:41;;;;;;;;;;;;;;;;;;5001345;28;20342;-77
2023/02/06 14:42:07;;;;;;;;;;;;;;;;;;5018044;28;19921;-77
2023/02/06 14:44:33;;;;;;;;;;;;;;;;;;5017357;28;20440;-78
2023/02/06 14:46:59;;;;;;;;;;;;;;;;;;5018076;28;19909;-77
2023/02/06 14:49:25;;;;;;;;;;;;;;;;;;5017139;28;19914;-76
2023/02/06 14:51:51;;;;;;;;;;;;;;;;;;5000974;28;19909;-77
2023/02/06 14:54:17;;;;;;;;;;;;;;;;;;5018616;28;20374;-77
2023/02/06 14:56:43;;;;;;;;;;;;;;;;;;5000654;28;19967;-77
2023/02/06 14:59:09;;;;;;;;;;;;;;;;;;5000164;28;20000;-77
2023/02/06 15:01:35;;;;;;;;;;;;;;;;;;5000717;28;19917;-77
2023/02/06 15:04:01;;;;;;;;;;;;;;;;;;5018507;28;19913;-78
2023/02/06 15:06:27;;;;;;;;;;;;;;;;;;5018103;28;19917;-78
2023/02/06 15:08:52;;;;;;;;;;;;;;;;;;5018162;28;19909;-78
2023/02/06 15:11:18;;;;;;;;;;;;;;;;;;5000582;28;19909;-77
2023/02/06 15:13:44;;;;;;;;;;;;;;;;;;5001560;28;19916;-78
2023/02/06 15:16:10;;;;;;;;;;;;;;;;;;5018117;28;19985;-77
2023/02/06 15:18:36;;;;;;;;;;;;;;;;;;5017183;28;19917;-77
2023/02/06 15:21:02;;;;;;;;;;;;;;;;;;5000212;28;19916;-77
2023/02/06 15:23:28;;;;;;;;;;;;;;;;;;5000094;28;19909;-78
2023/02/06 15:25:54;;;;;;;;;;;;;;;;;;4999637;28;19921;-76
2023/02/06 15:28:20;;;;;;;;;;;;;;;;;;4999820;28;19933;-77
2023/02/06 15:30:46;;;;;;;;;;;;;;;;;;5018677;28;19910;-76
2023/02/06 15:33:12;;;;;;;;;;;;;;;;;;5017925;28;20432;-77
2023/02/06 15:35:38;;;;;;;;;;;;;;;;;;4999870;28;19913;-77
2023/02/06 15:38:04;;;;;;;;;;;;;;;;;;4999752;28;19910;-78
2023/02/06 15:40:30;;;;;;;;;;;;;;;;;;5028981;23;19996;-80
2023/02/06 15:42:56;;;;;;;;;;;;;;;;;;5017118;28;19920;-79
2023/02/06 15:45:22;;;;;;;;;;;;;;;;;;5034990;28;19991;-80
2023/02/06 15:47:48;;;;;;;;;;;;;;;;;;5016926;28;19955;-80
2023/02/06 15:50:14;;;;;;;;;;;;;;;;;;5015739;28;19936;-80
2023/02/06 15:52:41;;;;;;;;;;;;;;;;;;5017333;28;20028;-80
2023/02/06 15:55:07;;;;;;;;;;;;;;;;;;5016787;28;20000;-80
2023/02/06 15:57:33;;;;;;;;;;;;;;;;;;5016326;28;20428;-79
2023/02/06 15:59:59;;;;;;;;;;;;;;;;;;5029466;28;19948;-79
2023/02/06 16:02:25;;;;;;;;;;;;;;;;;;5035327;28;19965;-79
2023/02/06 16:04:51;;;;;;;;;;;;;;;;;;5035687;28;20408;-79
2023/02/06 16:07:17;;;;;;;;;;;;;;;;;;5023926;28;19933;-78
2023/02/06 16:09:43;;;;;;;;;;;;;;;;;;5016597;28;20003;-80
2023/02/06 16:12:08;;;;;;;;;;;;;;;;;;5016763;28;20018;-80
2023/02/06 16:14:34;;;;;;;;;;;;;;;;;;5016659;28;19915;-79
2023/02/06 16:17:00;;;;;;;;;;;;;;;;;;5018743;28;19913;-80
2023/02/06 16:19:26;;;;;;;;;;;;;;;;;;5021522;28;20397;-80
2023/02/06 16:21:52;;;;;;;;;;;;;;;;;;5022957;28;19917;-80
2023/02/06 16:24:18;;;;;;;;;;;;;;;;;;5020182;28;19932;-79
2023/02/06 16:26:45;;;;;;;;;;;;;;;;;;5017862;28;19910;-79
2023/02/06 16:29:11;;;;;;;;;;;;;;;;;;5017325;28;19909;-80
2023/02/06 16:31:37;;;;;;;;;;;;;;;;;;5021184;28;19916;-80
2023/02/06 16:34:03;;;;;;;;;;;;;;;;;;5017349;28;19909;-80
2023/02/06 16:36:29;;;;;;;;;;;;;;;;;;5018560;28;20016;-80
2023/02/06 16:38:55;;;;;;;;;;;;;;;;;;5019282;28;19910;-80
2023/02/06 16:41:21;;;;;;;;;;;;;;;;;;5036999;28;19917;-79
2023/02/06 16:43:47;;;;;;;;;;;;;;;;;;5035841;28;19909;-80
2023/02/06 16:46:13;;;;;;;;;;;;;;;;;;5019309;28;19915;-80
2023/02/06 16:48:38;;;;;;;;;;;;;;;;;;5018628;28;19909;-79
2023/02/06 16:51:04;;;;;;;;;;;;;;;;;;5034964;28;19909;-80
2023/02/06 16:53:30;;;;;;;;;;;;;;;;;;5017115;28;19913;-80
2023/02/06 16:55:56;;;;;;;;;;;;;;;;;;5019205;28;19943;-80
2023/02/06 16:58:22;;;;;;;;;;;;;;;;;;5019868;28;20498;-80
2023/02/06 17:00:48;;;;;;;;;;;;;;;;;;5022362;28;19909;-80
2023/02/06 17:03:16;;;;;;;;;;;;;;;;;;5024932;28;19909;-80
2023/02/06 17:05:41;;;;;;;;;;;;;;;;;;5040656;28;19932;-80
2023/02/06 17:08:07;;;;;;;;;;;;;;;;;;5022560;28;20362;-80
2023/02/06 17:10:33;;;;;;;;;;;;;;;;;;5024666;28;19909;-80
2023/02/06 17:12:59;;;;;;;;;;;;;;;;;;5030597;28;19909;-80
2023/02/06 17:15:25;;;;;;;;;;;;;;;;;;5003654;28;19914;-80
2023/02/06 17:17:52;;;;;;;;;;;;;;;;;;5017070;28;19909;-80
2023/02/06 17:20:19;;;;;;;;;;;;;;;;;;5017395;28;19909;-79
2023/02/06 17:22:45;;;;;;;;;;;;;;;;;;4999234;28;20422;-78
2023/02/06 17:25:11;;;;;;;;;;;;;;;;;;4999938;28;19910;-81
2023/02/06 17:27:40;;;;;;;;;;;;;;;;;;5017326;28;20305;-80
2023/02/06 17:30:06;;;;;;;;;;;;;;;;;;4999371;28;19914;-82
2023/02/06 17:32:38;;;;;;;;;;;;;;;;;;5019089;28;19933;-81
2023/02/06 17:35:25;;;;;;;;;;;;;;;;;;5010347;28;19914;-81
2023/02/06 17:43:15;;;;;;;;;;;;;;;;;;5064899;22;20378;-78
2023/02/06 17:45:41;;;;;;;;;;;;;;;;;;5767891;22;20152;-78
2023/02/06 17:50:39;;;;;;;;;;;;;;;;;;5642542;22;19926;-80
2023/02/06 17:55:43;;;;;;;;;;;;;;;;;;5651697;22;19924;-79
2023/02/06 17:58:09;;;;;;;;;;;;;;;;;;4999173;28;19926;-79
2023/02/06 18:00:35;;;;;;;;;;;;;;;;;;5016898;28;19974;-79
2023/02/06 18:03:03;;;;;;;;;;;;;;;;;;4998868;28;19956;-79
2023/02/06 18:05:29;;;;;;;;;;;;;;;;;;5002495;28;19914;-79
2023/02/06 18:07:55;;;;;;;;;;;;;;;;;;4991673;28;19934;-79
2023/02/06 18:10:21;;;;;;;;;;;;;;;;;;4993684;28;19916;-79
2023/02/06 18:12:47;;;;;;;;;;;;;;;;;;4986811;28;19960;-78
2023/02/06 18:15:14;;;;;;;;;;;;;;;;;;5000420;28;19925;-79
2023/02/06 18:17:40;;;;;;;;;;;;;;;;;;5001469;28;19902;-79
2023/02/06 18:20:06;;;;;;;;;;;;;;;;;;4998367;28;19933;-79
2023/02/06 18:22:38;;;;;;;;;;;;;;;;;;5001057;28;19921;-79
2023/02/06 18:25:04;;;;;;;;;;;;;;;;;;4999730;28;19914;-79
2023/02/06 18:27:31;;;;;;;;;;;;;;;;;;5002089;28;19944;-80
2023/02/06 18:29:57;;;;;;;;;;;;;;;;;;5000619;28;19917;-80
2023/02/06 18:32:24;;;;;;;;;;;;;;;;;;5001502;28;20287;-79
2023/02/06 18:34:49;;;;;;;;;;;;;;;;;;5001539;28;19908;-79
2023/02/06 18:37:15;;;;;;;;;;;;;;;;;;5001225;28;19933;-79
2023/02/06 18:39:42;;;;;;;;;;;;;;;;;;5002051;28;19925;-79
2023/02/06 18:44:52;;;;;;;;;;;;;;;;;;5012762;28;19916;-79
2023/02/06 18:47:19;;;;;;;;;;;;;;;;;;4981000;28;19910;-79
2023/02/06 18:49:44;;;;;;;;;;;;;;;;;;4980818;28;20347;-79
2023/02/06 18:52:10;;;;;;;;;;;;;;;;;;4994936;28;19902;-79
2023/02/06 18:54:38;;;;;;;;;;;;;;;;;;4998129;28;19913;-79
2023/02/06 18:57:04;;;;;;;;;;;;;;;;;;5002775;28;19930;-80
2023/02/06 18:59:30;;;;;;;;;;;;;;;;;;4996896;28;19917;-79
2023/02/06 19:01:56;;;;;;;;;;;;;;;;;;5000634;28;19914;-79
2023/02/06 19:04:22;;;;;;;;;;;;;;;;;;4997976;28;19914;-79
2023/02/06 19:06:47;;;;;;;;;;;;;;;;;;5015622;28;19941;-80
2023/02/06 19:09:13;;;;;;;;;;;;;;;;;;4999013;28;19914;-79
2023/02/06 19:11:39;;;;;;;;;;;;;;;;;;4993606;28;19917;-79
2023/02/06 19:14:05;;;;;;;;;;;;;;;;;;4998602;28;19910;-79
2023/02/06 19:16:31;;;;;;;;;;;;;;;;;;5001283;28;19905;-80
2023/02/06 19:18:57;;;;;;;;;;;;;;;;;;5001103;28;19904;-79
2023/02/06 19:21:23;;;;;;;;;;;;;;;;;;5003332;28;19918;-80
2023/02/06 19:23:49;;;;;;;;;;;;;;;;;;5002410;28;19937;-80
2023/02/06 19:26:15;;;;;;;;;;;;;;;;;;5002751;28;19925;-80
2023/02/06 19:28:41;;;;;;;;;;;;;;;;;;5001951;28;19977;-80
2023/02/06 19:31:07;;;;;;;;;;;;;;;;;;5017443;28;19905;-80
2023/02/06 19:33:33;;;;;;;;;;;;;;;;;;4998688;28;19914;-79
2023/02/06 19:35:59;;;;;;;;;;;;;;;;;;4998243;28;19996;-79
2023/02/06 19:38:24;;;;;;;;;;;;;;;;;;4997112;28;19917;-80
2023/02/06 19:40:52;;;;;;;;;;;;;;;;;;4995079;28;19917;-79
2023/02/06 19:43:18;;;;;;;;;;;;;;;;;;4996753;28;19910;-80
2023/02/06 19:45:44;;;;;;;;;;;;;;;;;;5011428;28;19910;-79
2023/02/06 19:48:13;;;;;;;;;;;;;;;;;;4994798;28;19910;-79
2023/02/06 19:50:39;;;;;;;;;;;;;;;;;;4998825;28;19918;-79
2023/02/06 19:53:04;;;;;;;;;;;;;;;;;;5001177;28;19938;-79
2023/02/06 19:55:30;;;;;;;;;;;;;;;;;;4997262;28;19914;-79
2023/02/06 19:57:56;;;;;;;;;;;;;;;;;;4995672;28;20322;-80
2023/02/06 20:00:22;;;;;;;;;;;;;;;;;;4994066;28;19910;-79
2023/02/06 20:02:49;;;;;;;;;;;;;;;;;;4998576;28;19897;-80
2023/02/06 20:05:15;;;;;;;;;;;;;;;;;;4992020;28;20355;-79
2023/02/06 20:07:41;;;;;;;;;;;;;;;;;;4990481;28;19910;-79
2023/02/06 20:10:06;;;;;;;;;;;;;;;;;;4987984;28;20021;-79
2023/02/06 20:12:32;;;;;;;;;;;;;;;;;;4989142;28;19983;-79
2023/02/06 20:14:59;;;;;;;;;;;;;;;;;;4992570;28;19921;-79
2023/02/06 20:17:25;;;;;;;;;;;;;;;;;;5011600;28;19999;-80
2023/02/06 20:19:51;;;;;;;;;;;;;;;;;;4996458;28;19910;-79
2023/02/06 20:22:17;;;;;;;;;;;;;;;;;;4995547;28;19924;-79
2023/02/06 20:24:43;;;;;;;;;;;;;;;;;;4995389;28;19974;-79
2023/02/06 20:27:11;;;;;;;;;;;;;;;;;;4996744;28;19949;-79
2023/02/06 20:29:37;;;;;;;;;;;;;;;;;;4997037;28;19906;-78
2023/02/06 20:32:03;;;;;;;;;;;;;;;;;;5000616;28;19906;-77
2023/02/06 20:34:29;;;;;;;;;;;;;;;;;;5000463;28;19921;-79
2023/02/06 20:36:55;;;;;;;;;;;;;;;;;;5001482;28;19906;-79
2023/02/06 20:39:21;;;;;;;;;;;;;;;;;;5001802;28;19902;-80
2023/02/06 20:41:48;;;;;;;;;;;;;;;;;;4999843;28;19914;-81
2023/02/06 20:44:14;;;;;;;;;;;;;;;;;;5016319;28;19937;-80
2023/02/06 20:46:40;;;;;;;;;;;;;;;;;;5000611;28;19902;-80
2023/02/06 20:49:08;;;;;;;;;;;;;;;;;;5000498;28;19933;-80
2023/02/06 20:51:34;;;;;;;;;;;;;;;;;;4993934;28;19914;-76
2023/02/06 20:54:00;;;;;;;;;;;;;;;;;;4992842;28;19910;-77
2023/02/06 20:56:26;;;;;;;;;;;;;;;;;;4975111;28;19922;-76
2023/02/06 20:58:52;;;;;;;;;;;;;;;;;;5006298;28;19950;-82
2023/02/06 21:01:18;;;;;;;;;;;;;;;;;;4999995;28;20294;-81
2023/02/06 21:03:44;;;;;;;;;;;;;;;;;;4997265;28;19918;-79
2023/02/06 21:06:10;;;;;;;;;;;;;;;;;;4996484;28;19914;-79
2023/02/06 21:08:36;;;;;;;;;;;;;;;;;;4999688;28;19910;-80
2023/02/06 21:11:02;;;;;;;;;;;;;;;;;;5015968;28;19952;-80
2023/02/06 21:13:28;;;;;;;;;;;;;;;;;;4999579;28;19893;-80
2023/02/06 21:15:55;;;;;;;;;;;;;;;;;;5000239;28;19913;-80
2023/02/06 21:18:21;;;;;;;;;;;;;;;;;;5000167;28;19922;-80
2023/02/06 21:20:47;;;;;;;;;;;;;;;;;;5017182;28;19921;-80
2023/02/06 21:23:13;;;;;;;;;;;;;;;;;;4997977;28;19910;-80
2023/02/06 21:25:39;;;;;;;;;;;;;;;;;;5004281;28;19914;-79
2023/02/06 21:28:05;;;;;;;;;;;;;;;;;;5003487;28;19909;-80